createdAt,value
2023-03-17T00:01:33.750Z,40.13
2023-03-17T00:04:36.733Z,47.54
2023-03-17T00:07:39.237Z,44.23
2023-03-17T00:10:41.770Z,40.00
2023-03-17T00:13:45.040Z,40.20
2023-03-17T00:16:50.196Z,41.23
2023-03-17T00:19:53.619Z,40.38
2023-03-17T00:22:59.624Z,40.62
2023-03-17T00:26:02.569Z,41.41
2023-03-17T00:29:06.114Z,41.91
2023-03-17T00:32:20.528Z,42.32
2023-03-17T00:35:29.389Z,42.85
2023-03-17T00:38:32.544Z,42.83
2023-03-17T00:41:35.151Z,42.89
2023-03-17T00:44:38.113Z,43.15
2023-03-17T00:47:40.769Z,42.71
2023-03-17T00:50:45.026Z,42.95
2023-03-17T00:53:48.086Z,42.93
2023-03-17T00:56:52.163Z,42.75
2023-03-17T00:59:55.009Z,42.99
2023-03-17T01:02:57.925Z,42.73
2023-03-17T01:06:04.803Z,43.61
2023-03-17T01:09:08.324Z,43.43
2023-03-17T01:12:14.202Z,44.05
2023-03-17T01:15:17.586Z,44.52
2023-03-17T01:18:22.866Z,44.67
2023-03-17T01:21:25.555Z,44.58
2023-03-17T01:24:28.628Z,44.29
2023-03-17T01:27:35.429Z,44.15
2023-03-17T01:30:39.902Z,44.73
2023-03-17T01:33:42.466Z,44.90
2023-03-17T01:36:45.279Z,45.17
2023-03-17T01:39:48.166Z,44.96
2023-03-17T01:43:00.758Z,45.86
2023-03-17T01:46:20.808Z,46.37
2023-03-17T01:49:38.888Z,46.33
2023-03-17T01:52:41.835Z,46.63
2023-03-17T01:55:48.461Z,46.93
2023-03-17T01:58:54.731Z,47.34
2023-03-17T02:02:06.681Z,47.55
2023-03-17T02:05:13.004Z,47.59
2023-03-17T02:08:16.644Z,47.89
2023-03-17T02:11:21.115Z,47.72
2023-03-17T02:14:24.471Z,48.34
2023-03-17T02:17:28.404Z,48.12
2023-03-17T02:20:31.211Z,48.42
2023-03-17T02:23:34.031Z,49.13
2023-03-17T02:26:37.756Z,48.76
2023-03-17T02:29:42.097Z,48.84
2023-03-17T02:32:44.945Z,48.75
2023-03-17T02:35:47.905Z,48.42
2023-03-17T02:38:52.862Z,48.37
2023-03-17T02:41:55.952Z,48.64
2023-03-17T02:44:58.939Z,49.31
2023-03-17T02:48:01.650Z,49.83
2023-03-17T02:51:04.617Z,49.55
2023-03-17T02:54:07.875Z,49.74
2023-03-17T02:57:11.234Z,49.72
2023-03-17T03:00:14.406Z,50.16
2023-03-17T03:03:18.010Z,49.92
2023-03-17T03:06:21.301Z,49.70
2023-03-17T03:09:24.349Z,50.28
2023-03-17T03:12:26.993Z,49.92
2023-03-17T03:15:29.559Z,49.56
2023-03-17T03:18:33.019Z,50.24
2023-03-17T03:21:36.789Z,49.82
2023-03-17T03:24:39.270Z,50.57
2023-03-17T03:27:42.251Z,51.17
2023-03-17T03:30:46.898Z,50.88
2023-03-17T03:33:51.730Z,51.58
2023-03-17T03:36:54.369Z,51.54
2023-03-17T03:39:57.080Z,51.83
2023-03-17T03:42:59.890Z,51.64
2023-03-17T03:46:05.139Z,51.35
2023-03-17T03:49:07.837Z,51.58
2023-03-17T03:52:10.613Z,51.20
2023-03-17T03:55:13.327Z,51.56
2023-03-17T03:58:15.981Z,51.53
2023-03-17T04:01:18.761Z,51.06
2023-03-17T04:04:21.847Z,51.16
2023-03-17T04:07:24.847Z,50.99
2023-03-17T04:10:27.835Z,50.98
2023-03-17T04:13:30.441Z,51.21
2023-03-17T04:16:33.230Z,51.32
2023-03-17T04:19:36.476Z,51.25
2023-03-17T04:22:39.658Z,51.12
2023-03-17T04:25:42.373Z,50.93
2023-03-17T04:28:45.207Z,51.20
2023-03-17T04:31:47.987Z,51.10
2023-03-17T04:34:50.588Z,50.63
2023-03-17T04:37:53.443Z,51.26
2023-03-17T04:40:56.207Z,51.03
2023-03-17T04:43:58.770Z,51.04
2023-03-17T04:47:01.422Z,51.02
2023-03-17T04:50:05.557Z,51.50
2023-03-17T04:53:09.257Z,51.33
2023-03-17T04:56:12.090Z,50.81
2023-03-17T04:59:16.289Z,51.15
2023-03-17T05:02:19.112Z,51.73
2023-03-17T05:05:21.748Z,51.20
2023-03-17T05:08:24.885Z,51.41
2023-03-17T05:11:28.327Z,51.86
2023-03-17T05:14:32.097Z,50.98
2023-03-17T05:17:34.754Z,50.42
2023-03-17T05:20:37.268Z,50.80
2023-03-17T05:23:40.954Z,50.65
2023-03-17T05:26:44.641Z,50.42
2023-03-17T05:29:47.662Z,50.75
2023-03-17T05:32:50.265Z,51.09
2023-03-17T05:35:53.780Z,50.23
2023-03-17T05:38:56.749Z,50.40
2023-03-17T05:41:59.450Z,49.61
2023-03-17T05:45:02.229Z,49.48
2023-03-17T05:48:06.372Z,49.57
2023-03-17T05:51:09.312Z,49.14
2023-03-17T05:54:12.257Z,50.52
2023-03-17T05:57:16.395Z,50.29
2023-03-17T06:00:21.055Z,50.25
2023-03-17T06:03:23.872Z,50.02
2023-03-17T06:06:27.081Z,49.83
2023-03-17T06:09:29.972Z,49.58
2023-03-17T06:12:32.946Z,50.27
2023-03-17T06:15:37.056Z,50.64
2023-03-17T06:18:40.082Z,49.92
2023-03-17T06:21:42.861Z,49.83
2023-03-17T06:24:46.432Z,49.43
2023-03-17T06:27:53.092Z,49.23
2023-03-17T06:30:55.659Z,48.55
2023-03-17T06:33:58.308Z,47.99
2023-03-17T06:37:00.824Z,47.74
2023-03-17T06:40:05.622Z,46.93
2023-03-17T06:43:08.159Z,46.11
2023-03-17T06:46:11.214Z,46.05
2023-03-17T06:49:14.049Z,46.33
2023-03-17T06:52:16.604Z,45.14
2023-03-17T06:55:19.498Z,44.95
2023-03-17T06:58:22.994Z,44.78
2023-03-17T07:01:28.873Z,43.52
2023-03-17T07:04:32.055Z,43.84
2023-03-17T07:07:35.670Z,42.73
2023-03-17T07:10:41.127Z,41.73
2023-03-17T07:13:43.534Z,41.50
2023-03-17T07:16:46.717Z,40.87
2023-03-17T07:19:50.168Z,40.86
2023-03-17T07:22:52.983Z,39.99
2023-03-17T07:25:57.360Z,40.24
2023-03-17T07:29:01.444Z,39.34
2023-03-17T07:32:07.148Z,38.85
2023-03-17T07:35:09.580Z,38.28
2023-03-17T07:38:12.282Z,37.13
2023-03-17T07:41:15.411Z,36.84
2023-03-17T07:44:18.893Z,36.33
2023-03-17T07:47:21.707Z,36.10
2023-03-17T07:50:24.404Z,36.98
2023-03-17T07:53:27.413Z,36.74
2023-03-17T07:56:31.227Z,36.08
2023-03-17T07:59:34.537Z,35.17
2023-03-17T08:02:37.791Z,34.80
2023-03-17T08:05:41.137Z,33.93
2023-03-17T08:08:46.190Z,33.83
2023-03-17T08:11:49.126Z,33.15
2023-03-17T08:14:53.188Z,32.94
2023-03-17T08:17:55.680Z,31.76
2023-03-17T08:20:58.768Z,30.95
2023-03-17T08:24:01.781Z,29.84
2023-03-17T08:27:04.293Z,28.28
2023-03-17T08:30:08.720Z,27.10
2023-03-17T08:33:11.543Z,27.20
2023-03-17T08:36:14.200Z,26.49
2023-03-17T08:39:17.285Z,26.13
2023-03-17T08:42:20.089Z,25.04
2023-03-17T08:45:22.998Z,23.52
2023-03-17T08:48:25.612Z,22.58
2023-03-17T08:51:31.780Z,22.18
2023-03-17T08:54:35.909Z,19.57
2023-03-17T08:57:38.766Z,13.72
2023-03-17T09:00:41.430Z,11.14
2023-03-17T09:03:45.258Z,10.59
2023-03-17T09:07:02.355Z,9.62
2023-03-17T09:10:08.068Z,8.14
2023-03-17T09:13:11.732Z,8.01
2023-03-17T09:16:16.287Z,7.80
2023-03-17T09:19:18.915Z,7.65
2023-03-17T09:22:21.807Z,7.51
2023-03-17T09:25:25.505Z,6.82
2023-03-17T09:28:29.259Z,6.07
2023-03-17T09:31:33.135Z,5.90
2023-03-17T09:34:36.175Z,5.62
2023-03-17T09:37:39.056Z,6.37
2023-03-17T09:41:04.818Z,6.51
2023-03-17T09:44:16.332Z,6.59
2023-03-17T09:47:56.081Z,5.56
2023-03-17T09:51:04.981Z,6.05
2023-03-17T09:54:15.484Z,6.03
2023-03-17T09:57:36.333Z,5.63
2023-03-17T10:00:39.543Z,5.40
2023-03-17T10:03:42.970Z,5.70
2023-03-17T10:06:47.560Z,5.32
2023-03-17T10:10:05.288Z,6.00
2023-03-17T10:13:27.385Z,6.07
2023-03-17T10:16:46.880Z,5.39
2023-03-17T10:20:00.805Z,5.18
2023-03-17T10:23:07.736Z,5.49
2023-03-17T10:26:42.650Z,6.13
2023-03-17T10:29:48.288Z,6.42
2023-03-17T10:32:53.002Z,5.66
2023-03-17T10:35:55.706Z,4.84
2023-03-17T10:38:59.034Z,5.03
2023-03-17T10:42:21.833Z,4.33
2023-03-17T10:45:38.406Z,4.65
2023-03-17T10:48:42.699Z,5.74
2023-03-17T10:51:46.755Z,5.28
2023-03-17T10:54:51.470Z,5.10
2023-03-17T10:58:02.857Z,5.14
2023-03-17T11:01:08.039Z,5.47
2023-03-17T11:04:35.665Z,4.57
2023-03-17T11:07:40.112Z,5.56
2023-03-17T11:10:43.263Z,5.70
2023-03-17T11:13:45.791Z,5.07
2023-03-17T11:17:00.285Z,4.71
2023-03-17T11:20:05.709Z,4.21
2023-03-17T11:23:40.738Z,4.32
2023-03-17T11:26:46.295Z,4.67
2023-03-17T11:30:04.204Z,4.78
2023-03-17T11:33:16.092Z,4.96
2023-03-17T11:36:27.546Z,3.83
2023-03-17T11:39:46.292Z,4.68
2023-03-17T11:43:26.436Z,5.38
2023-03-17T11:46:33.900Z,4.41
2023-03-17T11:49:38.874Z,4.26
2023-03-17T11:52:59.965Z,4.20
2023-03-17T11:56:20.789Z,4.54
2023-03-17T11:59:52.331Z,5.21
2023-03-17T12:03:06.167Z,4.71
2023-03-17T12:06:27.105Z,4.38
2023-03-17T12:09:38.570Z,4.12
2023-03-17T12:12:48.378Z,4.35
2023-03-17T12:16:03.381Z,5.73
2023-03-17T12:19:19.728Z,4.84
2023-03-17T12:22:28.535Z,4.92
2023-03-17T12:25:57.832Z,4.34
2023-03-17T12:29:09.518Z,4.37
2023-03-17T12:32:21.307Z,5.75
2023-03-17T12:35:32.010Z,5.39
2023-03-17T12:38:38.167Z,6.19
2023-03-17T12:42:19.978Z,6.18
2023-03-17T12:45:43.327Z,6.07
2023-03-17T12:49:05.606Z,5.74
2023-03-17T12:52:35.218Z,5.12
2023-03-17T12:55:38.680Z,5.58
2023-03-17T12:58:45.887Z,5.66
2023-03-17T13:02:15.432Z,5.59
2023-03-17T13:05:31.046Z,5.94
2023-03-17T13:08:44.833Z,5.95
2023-03-17T13:11:47.961Z,6.13
2023-03-17T13:14:52.093Z,7.11
2023-03-17T13:18:16.207Z,6.91
2023-03-17T13:21:20.655Z,8.36
2023-03-17T13:24:36.264Z,7.59
2023-03-17T13:27:38.906Z,7.32
2023-03-17T13:31:02.434Z,7.48
2023-03-17T13:34:16.670Z,7.65
2023-03-17T13:37:28.094Z,7.38
2023-03-17T13:40:55.421Z,8.10
2023-03-17T13:44:15.385Z,8.46
2023-03-17T13:47:24.343Z,7.29
2023-03-17T13:50:33.656Z,6.75
2023-03-17T13:53:41.443Z,6.46
2023-03-17T13:56:45.296Z,6.40
2023-03-17T13:59:51.199Z,6.11
2023-03-17T14:03:03.877Z,6.53
2023-03-17T14:06:08.861Z,6.60
2023-03-17T14:09:24.053Z,7.14
2023-03-17T14:12:51.345Z,7.98
2023-03-17T14:16:12.628Z,7.74
2023-03-17T14:19:28.130Z,8.79
2023-03-17T14:22:30.942Z,8.58
2023-03-17T14:25:38.314Z,9.64
2023-03-17T14:28:41.016Z,9.86
2023-03-17T14:32:07.704Z,8.97
2023-03-17T14:35:14.029Z,7.69
2023-03-17T14:38:32.464Z,7.29
2023-03-17T14:41:36.270Z,8.38
2023-03-17T14:44:41.411Z,8.63
2023-03-17T14:47:44.005Z,10.00
2023-03-17T14:50:55.459Z,10.18
2023-03-17T14:54:01.021Z,10.39
2023-03-17T14:57:08.867Z,10.04
2023-03-17T15:00:46.612Z,10.53
2023-03-17T15:04:08.583Z,11.02
2023-03-17T15:07:48.036Z,11.44
2023-03-17T15:10:50.746Z,11.33
2023-03-17T15:14:03.245Z,11.58
2023-03-17T15:17:16.107Z,13.39
2023-03-17T15:20:20.147Z,15.63
2023-03-17T15:23:25.139Z,15.80
2023-03-17T15:26:34.054Z,16.26
2023-03-17T15:29:36.717Z,16.24
2023-03-17T15:32:39.995Z,16.68
2023-03-17T15:35:42.633Z,16.94
2023-03-17T15:38:45.283Z,17.59
2023-03-17T15:41:47.908Z,18.42
2023-03-17T15:44:51.536Z,18.24
2023-03-17T15:47:55.389Z,19.11
2023-03-17T15:51:00.251Z,19.62
2023-03-17T15:54:03.115Z,20.10
2023-03-17T15:57:06.503Z,20.82
2023-03-17T16:00:16.802Z,20.99
2023-03-17T16:03:24.321Z,21.18
2023-03-17T16:06:27.919Z,21.16
2023-03-17T16:09:30.525Z,21.79
2023-03-17T16:12:33.185Z,22.06
2023-03-17T16:15:39.369Z,22.80
2023-03-17T16:18:42.287Z,22.72
2023-03-17T16:21:44.997Z,22.96
2023-03-17T16:24:47.578Z,22.96
2023-03-17T16:27:50.629Z,23.40
2023-03-17T16:30:55.051Z,23.83
2023-03-17T16:33:58.113Z,23.92
2023-03-17T16:37:01.100Z,23.94
2023-03-17T16:40:05.099Z,24.20
2023-03-17T16:43:25.019Z,24.29
2023-03-17T16:46:34.611Z,24.87
2023-03-17T16:49:37.870Z,24.95
2023-03-17T16:52:40.941Z,25.12
2023-03-17T16:55:44.804Z,25.48
2023-03-17T16:58:49.081Z,25.68
2023-03-17T17:01:55.039Z,25.87
2023-03-17T17:04:59.354Z,26.11
2023-03-17T17:08:02.336Z,26.55
2023-03-17T17:11:05.712Z,26.86
2023-03-17T17:14:10.076Z,27.18
2023-03-17T17:17:13.540Z,26.90
2023-03-17T17:20:21.646Z,27.01
2023-03-17T17:23:27.528Z,27.41
2023-03-17T17:26:30.710Z,27.39
2023-03-17T17:29:34.033Z,27.43
2023-03-17T17:32:37.431Z,27.01
2023-03-17T17:35:41.361Z,27.36
2023-03-17T17:38:45.535Z,27.65
2023-03-17T17:41:49.277Z,28.26
2023-03-17T17:44:53.353Z,28.65
2023-03-17T17:47:56.820Z,28.65
2023-03-17T17:51:00.192Z,28.32
2023-03-17T17:54:03.675Z,28.75
2023-03-17T17:57:07.416Z,29.15
2023-03-17T18:00:16.956Z,29.26
2023-03-17T18:03:24.966Z,29.77
2023-03-17T18:06:28.195Z,29.81
2023-03-17T18:09:32.168Z,30.16
2023-03-17T18:12:35.997Z,30.52
2023-03-17T18:15:39.615Z,30.59
2023-03-17T18:18:57.584Z,30.65
2023-03-17T18:22:01.236Z,30.71
2023-03-17T18:25:06.453Z,30.98
2023-03-17T18:28:12.215Z,30.92
2023-03-17T18:31:32.026Z,31.07
2023-03-17T18:34:43.953Z,31.44
2023-03-17T18:37:48.668Z,31.62
2023-03-17T18:40:52.714Z,31.64
2023-03-17T18:43:56.387Z,31.99
2023-03-17T18:47:00.288Z,31.88
2023-03-17T18:50:08.216Z,31.41
2023-03-17T18:53:13.590Z,31.82
2023-03-17T18:56:17.252Z,32.28
2023-03-17T18:59:20.986Z,31.81
2023-03-17T19:02:24.715Z,31.77
2023-03-17T19:05:29.119Z,32.43
2023-03-17T19:08:34.994Z,32.14
2023-03-17T19:11:45.236Z,32.37
2023-03-17T19:14:50.916Z,32.47
2023-03-17T19:17:54.539Z,32.72
2023-03-17T19:20:58.923Z,32.82
2023-03-17T19:24:03.880Z,33.03
2023-03-17T19:27:09.000Z,33.67
2023-03-17T19:30:15.944Z,33.24
2023-03-17T19:33:20.205Z,33.62
2023-03-17T19:36:24.368Z,33.44
2023-03-17T19:39:28.103Z,33.58
2023-03-17T19:42:32.102Z,33.10
2023-03-17T19:45:56.605Z,33.46
2023-03-17T19:49:01.437Z,33.42
2023-03-17T19:52:08.124Z,33.31
2023-03-17T19:55:12.225Z,33.69
2023-03-17T19:58:15.897Z,33.66
2023-03-17T20:01:21.864Z,34.14
2023-03-17T20:04:26.830Z,34.09
2023-03-17T20:07:30.189Z,34.11
2023-03-17T20:10:34.817Z,34.24
2023-03-17T20:13:39.493Z,34.55
2023-03-17T20:16:44.534Z,34.58
2023-03-17T20:19:48.104Z,35.05
2023-03-17T20:22:57.820Z,34.96
2023-03-17T20:26:02.210Z,34.83
2023-03-17T20:29:07.004Z,35.29
2023-03-17T20:32:15.245Z,35.44
2023-03-17T20:35:19.456Z,35.46
2023-03-17T20:38:23.427Z,35.81
2023-03-17T20:41:28.187Z,35.24
2023-03-17T20:44:32.031Z,35.27
2023-03-17T20:47:35.500Z,34.84
2023-03-17T20:50:43.689Z,34.99
2023-03-17T20:53:49.584Z,35.16
2023-03-17T20:56:56.543Z,34.89
2023-03-17T20:59:59.986Z,35.16
2023-03-17T21:03:07.018Z,34.99
2023-03-17T21:06:11.607Z,35.48
2023-03-17T21:09:15.364Z,35.80
2023-03-17T21:12:20.428Z,35.34
2023-03-17T21:15:24.036Z,36.04
2023-03-17T21:18:28.227Z,36.01
2023-03-17T21:21:32.725Z,36.06
2023-03-17T21:24:38.772Z,35.99
2023-03-17T21:27:43.197Z,35.89
2023-03-17T21:30:47.509Z,35.83
2023-03-17T21:33:51.389Z,36.33
2023-03-17T21:36:55.599Z,36.12
2023-03-17T21:39:58.886Z,36.11
2023-03-17T21:43:01.607Z,36.35
2023-03-17T21:46:05.576Z,35.67
2023-03-17T21:49:08.741Z,35.96
2023-03-17T21:52:12.797Z,36.45
2023-03-17T21:55:15.888Z,36.55
2023-03-17T21:58:19.485Z,36.68
2023-03-17T22:01:22.653Z,37.15
2023-03-17T22:04:26.097Z,37.36
2023-03-17T22:07:29.286Z,37.01
2023-03-17T22:10:32.263Z,36.35
2023-03-17T22:13:35.924Z,36.23
2023-03-17T22:16:38.539Z,36.72
2023-03-17T22:19:44.045Z,36.90
2023-03-17T22:22:46.633Z,36.98
2023-03-17T22:25:49.305Z,36.86
2023-03-17T22:28:52.566Z,36.69
2023-03-17T22:31:55.310Z,37.10
2023-03-17T22:34:58.046Z,37.64
2023-03-17T22:38:00.792Z,37.81
2023-03-17T22:41:09.440Z,37.67
2023-03-17T22:44:13.309Z,37.63
2023-03-17T22:47:15.778Z,38.04
2023-03-17T22:50:18.805Z,37.67
2023-03-17T22:53:21.911Z,37.44
2023-03-17T22:56:25.129Z,37.75
2023-03-17T22:59:27.680Z,37.83
2023-03-17T23:02:30.774Z,37.86
2023-03-17T23:05:33.318Z,38.25
2023-03-17T23:08:38.523Z,38.10
2023-03-17T23:11:42.393Z,38.65
2023-03-17T23:14:44.930Z,38.95
2023-03-17T23:17:47.680Z,39.37
2023-03-17T23:20:50.862Z,38.20
2023-03-17T23:23:53.585Z,38.26
2023-03-17T23:26:56.291Z,38.43
2023-03-17T23:29:59.302Z,38.58
2023-03-17T23:33:02.997Z,39.20
2023-03-17T23:36:06.339Z,39.15
2023-03-17T23:39:09.274Z,39.38
2023-03-17T23:42:12.131Z,39.51
2023-03-17T23:45:16.737Z,39.49
2023-03-17T23:48:20.804Z,39.46
2023-03-17T23:51:24.047Z,39.73
2023-03-17T23:54:27.974Z,39.68
2023-03-17T23:57:30.672Z,39.90
